Aérodrome :
LOGIN :

S'inscrire | Disclaimer

   EN    FR    IT 

 










Légende :    VFR   VFR Marginal   IFR   IFR Intensif   IFR Très Intensif
Visi : 
Plafond : 
>= 8 km
>= 3000ft
5 à 8 km
1000 à 3000 ft
1500m à 5 km
500 à 1000 ft
800 à 1500m
200 à 500 ft
< 800m
< 200 ft
Symboles :   Orages  Brouillard  Fortes neiges  Fortes précipitations  Vent > 20 kt
SIGMETs :   Divers  Orages  Givrage  Turbulence  Onde Orograph.  Cendres Volcan.






- Altitude de l'aérodrome : 587 ft
- Code IATA : XCR


LFOK - Chalons Vatry

DERNIER METAR :
  • 230300Z AUTO 04006KT 9999 OVC007 10/10 Q1016 TEMPO 4000 BR

METARs EXPIRÉS :
  • 230230Z AUTO 04007KT 9999 OVC007 10/10 Q1016 TEMPO 4000 BR
  • 230200Z AUTO 05007KT 9999 OVC009 10/10 Q1017 TEMPO 4000 BR
  • 230130Z AUTO 04008KT 9999 OVC009 10/09 Q1017 TEMPO 4000 BR
  • 230100Z AUTO 05006KT 9999 BKN012 10/09 Q1017 TEMPO 4000 BR BKN005
  • 230030Z AUTO 04007KT 9000 FEW013 SCT088 09/09 Q1017 TEMPO 4000 BR BKN005

TAF TAF LFOK
Valide du 23 à 00h jusqu'au 24 à 00h UTC


222300Z 2300/2324 03008KT 6000 NSC
TEMPO 2300/2308 4000 BR BKN005



MET'MAP, la Météo Aéronautique d'un coup d'oeil ! - Copyright ORBIFLY Décembre 2007 - Disclaimer

ORBIFLY MET'MAP TEAM :

Programmation & Développement : Alexandra Zaïnal
Conception & Développement : Baudouin d'Aumeries
Co-Programmation & Développement : Marc-Olivier Méhu
Soutien technique & logistique : Manuel Goepfert

Contact : metmap@orbifly.com




SOURCES & CREDITS :

   NOAA